createdAt,value
2022-10-05T00:03:41.855Z,3.47
2022-10-05T00:07:24.670Z,6.15
2022-10-05T00:11:12.717Z,3.95
2022-10-05T00:14:59.310Z,3.88
2022-10-05T00:22:29.978Z,3.47
2022-10-05T00:26:20.728Z,4.72
2022-10-05T00:30:18.750Z,3.38
2022-10-05T00:34:00.604Z,4.38
2022-10-05T00:37:43.139Z,3.42
2022-10-05T00:41:41.749Z,5.07
2022-10-05T00:45:50.356Z,3.30
2022-10-05T00:50:03.230Z,2.22
2022-10-05T00:53:55.160Z,3.50
2022-10-05T00:57:49.244Z,4.95
2022-10-05T01:01:44.231Z,2.63
2022-10-05T01:05:31.722Z,4.68
2022-10-05T01:09:16.555Z,4.03
2022-10-05T01:13:07.416Z,5.88
2022-10-05T01:17:07.870Z,3.55
2022-10-05T01:21:01.156Z,5.43
2022-10-05T01:25:24.545Z,3.78
2022-10-05T01:29:22.409Z,4.82
2022-10-05T01:33:19.954Z,3.88
2022-10-05T01:37:15.644Z,4.28
2022-10-05T01:41:19.644Z,4.05
2022-10-05T01:45:17.550Z,3.30
2022-10-05T01:49:17.962Z,5.63
2022-10-05T01:53:14.960Z,4.53
2022-10-05T02:01:16.892Z,4.82
2022-10-05T02:05:18.250Z,4.50
2022-10-05T02:09:16.675Z,5.13
2022-10-05T02:13:06.745Z,4.20
2022-10-05T02:16:51.325Z,3.22
2022-10-05T02:20:36.557Z,5.53
2022-10-05T02:24:26.934Z,7.45
2022-10-05T02:28:30.462Z,7.20
2022-10-05T02:32:21.568Z,7.72
2022-10-05T02:36:30.625Z,3.75
2022-10-05T02:40:37.687Z,4.68
2022-10-05T02:44:37.561Z,4.60
2022-10-05T02:48:28.476Z,5.55
2022-10-05T02:52:25.472Z,4.30
2022-10-05T03:00:13.080Z,5.32
2022-10-05T03:04:04.785Z,3.47
2022-10-05T03:07:57.330Z,3.80
2022-10-05T03:12:00.133Z,5.97
2022-10-05T03:16:12.835Z,8.40
2022-10-05T03:20:06.973Z,6.75
2022-10-05T03:24:15.408Z,4.65
2022-10-05T03:28:08.481Z,3.47
2022-10-05T03:32:17.854Z,4.22
2022-10-05T03:36:23.733Z,6.47
2022-10-05T03:40:31.479Z,4.13
2022-10-05T03:44:49.870Z,5.15
2022-10-05T03:48:46.398Z,8.88
2022-10-05T03:52:49.141Z,5.10
2022-10-05T03:56:40.203Z,5.72
2022-10-05T04:00:23.552Z,3.45
2022-10-05T04:04:11.424Z,5.45
2022-10-05T04:08:07.865Z,5.72
2022-10-05T04:12:19.095Z,5.15
2022-10-05T04:16:10.580Z,5.03
2022-10-05T04:19:59.409Z,4.72
2022-10-05T04:23:56.087Z,5.28
2022-10-05T04:27:41.425Z,5.82
2022-10-05T04:31:50.243Z,6.28
2022-10-05T04:35:52.253Z,4.65
2022-10-05T04:39:37.122Z,5.78
2022-10-05T04:43:32.001Z,5.35
2022-10-05T04:47:35.460Z,7.07
2022-10-05T04:51:32.069Z,5.88
2022-10-05T04:55:24.905Z,4.28
2022-10-05T04:59:29.245Z,7.93
2022-10-05T05:03:20.098Z,3.40
2022-10-05T05:07:15.509Z,4.30
2022-10-05T05:11:04.948Z,5.80
2022-10-05T05:15:21.021Z,5.20
2022-10-05T05:19:23.876Z,3.92
2022-10-05T05:23:24.396Z,4.90
2022-10-05T05:27:24.051Z,3.70
2022-10-05T05:31:22.738Z,6.72
2022-10-05T05:35:07.692Z,5.95
2022-10-05T05:38:52.515Z,4.15
2022-10-05T05:43:15.265Z,6.10
2022-10-05T05:47:07.930Z,3.80
2022-10-05T05:50:52.716Z,5.50
2022-10-05T05:54:43.720Z,5.50
2022-10-05T05:58:31.285Z,5.93
2022-10-05T06:02:19.879Z,8.45
2022-10-05T06:06:09.995Z,6.43
2022-10-05T06:10:29.091Z,6.82
2022-10-05T06:14:18.610Z,6.82
2022-10-05T06:18:08.833Z,6.90
2022-10-05T06:22:00.566Z,6.03
2022-10-05T06:25:57.398Z,7.63
2022-10-05T06:30:02.902Z,7.30
2022-10-05T06:33:53.471Z,7.43
2022-10-05T06:37:56.093Z,4.93
2022-10-05T06:41:41.019Z,6.00
2022-10-05T06:45:38.153Z,5.03
2022-10-05T06:49:29.281Z,6.88
2022-10-05T06:53:19.729Z,4.65
2022-10-05T06:57:47.677Z,9.10
2022-10-05T07:01:39.792Z,4.65
2022-10-05T07:05:39.821Z,7.93
2022-10-05T07:09:45.726Z,7.93
2022-10-05T07:13:42.737Z,7.07
2022-10-05T07:21:43.600Z,8.50
2022-10-05T07:26:17.067Z,8.93
2022-10-05T07:30:01.717Z,5.85
2022-10-05T07:34:07.325Z,6.72
2022-10-05T07:37:55.434Z,4.10
2022-10-05T07:42:06.346Z,6.05
2022-10-05T07:45:56.065Z,6.75
2022-10-05T07:50:11.872Z,5.15
2022-10-05T07:54:20.146Z,7.47
2022-10-05T07:58:23.549Z,6.13
2022-10-05T08:02:34.357Z,5.05
2022-10-05T08:06:26.381Z,11.15
2022-10-05T08:10:18.617Z,5.65
2022-10-05T08:14:14.875Z,5.13
2022-10-05T08:18:19.312Z,5.72
2022-10-05T08:22:09.791Z,9.82
2022-10-05T08:26:22.652Z,8.40
2022-10-05T08:30:12.421Z,8.95
2022-10-05T08:33:56.807Z,8.27
2022-10-05T08:37:42.458Z,6.57
2022-10-05T08:42:04.896Z,8.00
2022-10-05T08:46:24.247Z,5.75
2022-10-05T08:50:12.042Z,7.88
2022-10-05T08:54:09.542Z,8.60
2022-10-05T08:58:10.144Z,7.18
2022-10-05T09:02:04.047Z,5.43
2022-10-05T09:06:23.255Z,7.10
2022-10-05T09:10:53.422Z,6.53
2022-10-05T09:15:31.821Z,6.60
2022-10-05T09:19:51.035Z,5.40
2022-10-05T09:23:44.517Z,4.30
2022-10-05T09:27:42.938Z,7.00
2022-10-05T09:31:47.438Z,5.95
2022-10-05T09:36:00.474Z,3.17
2022-10-05T09:40:19.797Z,4.13
2022-10-05T09:44:29.644Z,5.03
2022-10-05T09:48:17.538Z,2.72
2022-10-05T09:52:07.885Z,2.75
2022-10-05T09:55:55.518Z,1.73
2022-10-05T09:59:49.220Z,1.73
2022-10-05T10:04:10.189Z,1.58
2022-10-05T10:08:20.445Z,1.60
2022-10-05T10:12:14.209Z,0.88
2022-10-05T10:16:03.485Z,0.40
2022-10-05T10:19:45.322Z,0.82
2022-10-05T10:23:35.880Z,1.10
2022-10-05T10:27:28.954Z,0.73
2022-10-05T10:31:43.111Z,0.75
2022-10-05T10:35:57.114Z,0.65
2022-10-05T10:39:54.281Z,0.28
2022-10-05T10:44:13.830Z,1.13
2022-10-05T10:48:03.540Z,0.88
2022-10-05T10:52:09.855Z,0.85
2022-10-05T10:56:21.457Z,0.85
2022-10-05T11:00:22.875Z,1.73
2022-10-05T11:04:13.683Z,1.88
2022-10-05T11:08:17.145Z,4.95
2022-10-05T11:12:36.397Z,1.08
2022-10-05T11:16:30.270Z,0.35
2022-10-05T11:20:35.693Z,0.73
2022-10-05T11:24:41.610Z,1.23
2022-10-05T11:28:52.205Z,1.45
2022-10-05T11:33:11.268Z,1.15
2022-10-05T11:37:36.325Z,2.38
2022-10-05T11:41:50.805Z,1.38
2022-10-05T11:45:41.491Z,1.58
2022-10-05T11:49:48.807Z,0.95
2022-10-05T11:53:51.406Z,0.82
2022-10-05T11:57:54.925Z,1.13
2022-10-05T12:01:46.811Z,1.33
2022-10-05T12:05:33.156Z,1.55
2022-10-05T12:10:07.931Z,1.20
2022-10-05T12:13:52.557Z,0.80
2022-10-05T12:17:48.385Z,1.25
2022-10-05T12:21:52.081Z,1.65
2022-10-05T12:25:45.488Z,1.73
2022-10-05T12:29:44.217Z,1.08
2022-10-05T12:33:34.628Z,1.30
2022-10-05T12:37:52.131Z,0.32
2022-10-05T12:41:41.044Z,1.85
2022-10-05T12:45:43.416Z,1.08
2022-10-05T12:49:43.445Z,3.97
2022-10-05T12:53:59.978Z,2.25
2022-10-05T12:58:09.207Z,4.35
2022-10-05T13:01:58.841Z,3.13
2022-10-05T13:06:02.646Z,4.68
2022-10-05T13:10:08.987Z,3.50
2022-10-05T13:14:09.650Z,1.45
2022-10-05T13:18:23.756Z,4.63
2022-10-05T13:22:24.533Z,4.72
2022-10-05T13:26:42.978Z,2.28
2022-10-05T13:30:25.074Z,2.00
2022-10-05T13:34:12.762Z,3.22
2022-10-05T13:38:06.617Z,1.48
2022-10-05T13:41:59.705Z,1.88
2022-10-05T13:46:01.778Z,3.72
2022-10-05T13:49:53.748Z,2.08
2022-10-05T13:53:49.200Z,3.00
2022-10-05T13:57:46.093Z,3.00
2022-10-05T14:01:57.983Z,4.65
2022-10-05T14:05:55.877Z,2.38
2022-10-05T14:09:37.892Z,3.65
2022-10-05T14:13:28.227Z,1.95
2022-10-05T14:17:35.848Z,6.60
2022-10-05T14:21:23.911Z,2.72
2022-10-05T14:25:08.833Z,1.58
2022-10-05T14:29:00.095Z,2.47
2022-10-05T14:33:08.740Z,2.40
2022-10-05T14:36:56.862Z,3.15
2022-10-05T14:40:38.897Z,2.22
2022-10-05T14:48:19.481Z,1.95
2022-10-05T14:52:32.579Z,2.58
2022-10-05T14:56:17.957Z,3.58
2022-10-05T15:00:00.099Z,3.53
2022-10-05T15:03:41.933Z,1.38
2022-10-05T15:07:31.369Z,2.55
2022-10-05T15:11:28.359Z,2.75
2022-10-05T15:19:02.890Z,3.08
2022-10-05T15:22:48.159Z,3.33
2022-10-05T15:26:45.871Z,5.72
2022-10-05T15:30:27.864Z,5.55
2022-10-05T15:34:13.091Z,3.47
2022-10-05T15:38:12.404Z,6.35
2022-10-05T15:42:02.248Z,7.28
2022-10-05T15:46:10.356Z,6.85
2022-10-05T15:49:59.650Z,4.82
2022-10-05T15:54:19.712Z,10.25
2022-10-05T15:58:18.150Z,4.97
2022-10-05T16:02:07.072Z,5.72
2022-10-05T16:06:09.931Z,5.75
2022-10-05T16:10:24.235Z,5.40
2022-10-05T16:14:19.721Z,4.72
2022-10-05T16:18:20.699Z,4.32
2022-10-05T16:22:32.758Z,4.57
2022-10-05T16:26:39.273Z,4.20
2022-10-05T16:30:23.229Z,11.03
2022-10-05T16:34:17.158Z,7.70
2022-10-05T16:38:25.564Z,5.75
2022-10-05T16:42:42.418Z,4.28
2022-10-05T16:46:48.276Z,8.88
2022-10-05T16:50:34.291Z,4.28
2022-10-05T16:54:21.648Z,10.00
2022-10-05T16:58:13.072Z,4.43
2022-10-05T17:02:32.512Z,7.38
2022-10-05T17:06:22.971Z,6.47
2022-10-05T17:10:43.513Z,4.40
2022-10-05T17:14:37.321Z,7.68
2022-10-05T17:18:27.197Z,6.70
2022-10-05T17:22:39.678Z,6.70
2022-10-05T17:26:34.846Z,8.70
2022-10-05T17:30:35.193Z,6.47
2022-10-05T17:34:17.058Z,6.43
2022-10-05T17:38:21.680Z,7.85
2022-10-05T17:42:32.457Z,7.32
2022-10-05T17:46:38.629Z,7.03
2022-10-05T17:50:56.875Z,8.63
2022-10-05T17:55:02.954Z,7.05
2022-10-05T17:58:44.840Z,7.93
2022-10-05T18:02:36.280Z,5.68
2022-10-05T18:06:37.419Z,7.88
2022-10-05T18:10:28.752Z,6.38
2022-10-05T18:14:24.804Z,7.47
2022-10-05T18:18:36.465Z,6.40
2022-10-05T18:22:18.331Z,7.85
2022-10-05T18:26:07.049Z,8.30
2022-10-05T18:30:24.261Z,5.93
2022-10-05T18:34:21.125Z,8.07
2022-10-05T18:38:13.692Z,6.80
2022-10-05T18:42:08.774Z,9.32
2022-10-05T18:45:50.596Z,7.78
2022-10-05T18:49:58.519Z,5.75
2022-10-05T18:53:49.425Z,7.93
2022-10-05T18:57:37.335Z,6.18
2022-10-05T19:01:34.701Z,8.00
2022-10-05T19:05:42.946Z,7.25
2022-10-05T19:09:34.797Z,5.50
2022-10-05T19:13:16.603Z,8.90
2022-10-05T19:17:13.711Z,5.88
2022-10-05T19:24:48.260Z,5.67
2022-10-05T19:28:36.716Z,8.40
2022-10-05T19:32:43.173Z,6.30
2022-10-05T19:36:44.115Z,6.07
2022-10-05T19:40:34.560Z,4.72
2022-10-05T19:44:16.428Z,7.05
2022-10-05T19:48:28.257Z,4.90
2022-10-05T19:52:13.855Z,7.18
2022-10-05T19:55:56.157Z,5.78
2022-10-05T19:59:40.533Z,9.55
2022-10-05T20:03:29.517Z,7.47
2022-10-05T20:07:21.681Z,6.93
2022-10-05T20:11:09.908Z,10.20
2022-10-05T20:15:27.098Z,7.72
2022-10-05T20:19:36.416Z,6.18
2022-10-05T20:23:26.001Z,8.13
2022-10-05T20:27:42.490Z,7.55
2022-10-05T20:31:24.373Z,8.65
2022-10-05T20:35:07.055Z,5.82
2022-10-05T20:38:48.925Z,7.18
2022-10-05T20:42:30.936Z,5.95
2022-10-05T20:46:12.767Z,9.95
2022-10-05T20:49:54.691Z,8.02
2022-10-05T20:53:36.563Z,10.02
2022-10-05T20:57:20.916Z,7.93
2022-10-05T21:01:26.562Z,10.05
2022-10-05T21:05:09.146Z,9.13
2022-10-05T21:08:51.420Z,9.20
2022-10-05T21:12:34.704Z,8.23
2022-10-05T21:16:18.530Z,8.20
2022-10-05T21:20:00.491Z,9.70
2022-10-05T21:23:42.473Z,6.43
2022-10-05T21:27:24.918Z,8.65
2022-10-05T21:31:08.159Z,7.05
2022-10-05T21:34:50.179Z,7.50
2022-10-05T21:38:32.089Z,7.93
2022-10-05T21:42:13.976Z,11.40
2022-10-05T21:45:56.214Z,9.15
2022-10-05T21:49:38.107Z,7.35
2022-10-05T21:53:25.360Z,5.63
2022-10-05T21:57:07.223Z,7.28
2022-10-05T22:00:49.644Z,7.38
2022-10-05T22:04:31.586Z,7.32
2022-10-05T22:08:39.875Z,10.20
2022-10-05T22:12:25.193Z,6.28
2022-10-05T22:16:07.188Z,8.00
2022-10-05T22:19:49.888Z,8.38
2022-10-05T22:23:33.726Z,5.43
2022-10-05T22:27:16.358Z,6.75
2022-10-05T22:30:59.830Z,6.38
2022-10-05T22:34:41.690Z,10.82
2022-10-05T22:38:23.556Z,6.07
2022-10-05T22:42:05.895Z,4.28
2022-10-05T22:45:47.821Z,7.55
2022-10-05T22:49:29.716Z,5.53
2022-10-05T22:53:12.659Z,7.47
2022-10-05T22:56:54.494Z,7.18
2022-10-05T23:00:57.025Z,10.50
2022-10-05T23:04:38.285Z,6.65
2022-10-05T23:08:20.154Z,6.40
2022-10-05T23:12:02.052Z,8.80
2022-10-05T23:15:44.935Z,5.88
2022-10-05T23:19:26.810Z,8.50
2022-10-05T23:23:08.683Z,6.63
2022-10-05T23:26:50.500Z,9.20
2022-10-05T23:30:32.475Z,9.02
2022-10-05T23:34:14.391Z,7.25
2022-10-05T23:37:56.262Z,6.07
2022-10-05T23:41:38.112Z,5.65
2022-10-05T23:45:19.972Z,6.30
2022-10-05T23:49:01.848Z,7.82
2022-10-05T23:52:43.739Z,7.68
2022-10-05T23:56:25.557Z,9.07
